Airfield :







YOU CAN JOIN US ON...

 
LOGIN :

Register | Disclaimer

   EN    FR    IT 

 









Legend :    VFR   Marginal VFR   IFR   Intensive IFR   Very Intensive IFR
Visi :
Ceiling :
>= 8 km
>= 3000ft
5 to 8 km
1000 to 3000 ft
1500m to 5 km
500 to 1000 ft
800 to 1500m
200 to 500 ft
< 800m
< 200 ft
Symbols :   Thunderstorms  Fog  Heavy snow  Heavy precipitations  Wind > 20 kt







- Airport Elevation : 83 ft


KBHB - Hancock County-Bar Harbor

CURRENT METAR :
  • 192356Z AUTO 20006KT 10SM CLR 14/12 A2986 RMK AO2 SLP116 T01390117 10200 20139 402000133 58001 $

EXPIRED METARs :
  • 192156Z AUTO 21012KT 10SM CLR 16/12 A2987 RMK AO2 SLP118 T01610117 $

TAF KBHB
Valid from the 20 at 00:00 until the 21 at 00:00 UTC


192320Z 2000/2024 21010KT P6SM BKN150
TEMPO 2000/2002 OVC003
FM200200 18007KT P6SM OVC003
FM200400 18005KT 3/4SM BR OVC002
FM201100 15004KT P6SM VCSH OVC002
FM201900 15005KT 3SM -RA BR OVC003
KZBW FIR / North America



MET'MAP, your aeronautical weather chart ! - Copyright ORBIFLY December 2007 - Disclaimer

ORBIFLY MET'MAP TEAM :

Programming & Development : Alexandra Zaïnal
Concept & Development : Baudouin d'Aumeries
Co-Development & Prog : Marc-Olivier Méhu
Technical & hardware support : Manuel Goepfert

Contact : metmap@orbifly.com




SOURCES & CREDITS :

   NOAA